Belsano, PA (15922)

3:41 AM EST on February 08, 2016 (GMT -0500)
Colver | | Change Station
CLOSE
Current Station
Personal Weather Station
Location: Colver Streets, PA
Elevation: 2149 ft
Nearby Weather Stations

Elev 2149 ft 40.54 °N, 78.79 °W | Updated 13 minutes ago

Partly Cloudy
Partly Cloudy
33.9 °F
Feels Like 34 °F
N
3.0
Wind Variable Wind from ESE
Gusts 5.0 mph

Today
High -- | Low -- °F
--% Chance of Precip.
Yesterday
High -- | Low -- °F
Precip. -- in
Pressure 29.78 in
Visibility 10.0 miles
Clouds Few 11000 ft
Windchill 34 °F
Dew Point 25 °F
Humidity 69%
Rainfall 0.00 in
Snow Depth Not available.
7:18 AM 5:41 PM
Waning Crescent, 0% visible
METAR KJST 080754Z AUTO 20004KT 10SM FEW110 M01/M08 A2973 RMK AO2 SLP083 T10061078
Pressure 29.78 in
Visibility 10.0 miles
Clouds Few 11000 ft
Windchill 34 °F
Dew Point 25 °F
Humidity 69%
Rainfall 0.00 in
Snow Depth Not available.
7:18 AM 5:41 PM
Waning Crescent, 0% visible
METAR KJST 080754Z AUTO 20004KT 10SM FEW110 M01/M08 A2973 RMK AO2 SLP083 T10061078

10-Day Weather Forecast

Almanac

Astronomy

Feb. 08, 2016 Rise Set
Actual Time
Civil Twilight
Nautical Twilight
Astronomical Twilight
Moon
Length of Visible Light
Length of Day
Tomorrow will be .
, % of the Moon is Illuminated

Today's Extremes

State Highs State Lows

Community

WunderPhotos

Upload Photos

1,891,412 photos uploaded!

WunderBlog® & News

Nearby

Air Quality

  Air Quality AQ Index Pollutant
Not available.

Snow Depth

Station Depth Elevation

Earthquake Activity

City Distance Mag. Time & Date
Minimum magnitude displayed is 2.5.

Coastal Water Temperatures

Place Temperature

Stations

Nearby Weather Stations

Station Location Temp. Windchill Dew Point Humidity Wind Precip. Elev Updated Type
                   

Watches & Warnings

There are currently no watches in effect.